createdAt,value
2018-08-19T00:00:42.804Z,24.90
2018-08-19T00:03:11.351Z,28.27
2018-08-19T00:05:40.289Z,25.13
2018-08-19T00:08:08.909Z,27.90
2018-08-19T00:11:12.726Z,25.77
2018-08-19T00:13:41.294Z,31.17
2018-08-19T00:16:10.831Z,27.93
2018-08-19T00:18:39.402Z,30.40
2018-08-19T00:21:09.734Z,27.87
2018-08-19T00:23:43.563Z,27.73
2018-08-19T00:26:13.317Z,27.53
2018-08-19T00:28:42.226Z,24.87
2018-08-19T00:31:10.721Z,31.53
2018-08-19T00:33:39.270Z,31.10
2018-08-19T00:36:25.986Z,28.93
2018-08-19T00:38:55.064Z,27.57
2018-08-19T00:41:23.595Z,28.50
2018-08-19T00:43:52.133Z,30.10
2018-08-19T00:46:23.665Z,29.63
2018-08-19T00:48:52.218Z,27.67
2018-08-19T00:51:20.902Z,32.13
2018-08-19T00:53:49.486Z,29.90
2018-08-19T00:56:18.047Z,33.40
2018-08-19T00:58:46.733Z,28.40
2018-08-19T01:01:29.059Z,29.07
2018-08-19T01:03:58.773Z,27.10
2018-08-19T01:06:27.444Z,31.60
2018-08-19T01:08:56.509Z,30.40
2018-08-19T01:11:31.456Z,27.77
2018-08-19T01:14:00.164Z,30.40
2018-08-19T01:16:28.814Z,29.40
2018-08-19T01:19:01.312Z,30.43
2018-08-19T01:21:31.349Z,28.17
2018-08-19T01:24:00.890Z,30.07
2018-08-19T01:26:33.279Z,28.77
2018-08-19T01:29:01.997Z,30.20
2018-08-19T01:31:30.475Z,29.67
2018-08-19T01:33:59.136Z,31.77
2018-08-19T01:36:29.332Z,35.93
2018-08-19T01:38:58.433Z,33.53
2018-08-19T01:41:26.955Z,30.90
2018-08-19T01:44:17.039Z,32.60
2018-08-19T01:46:48.637Z,34.53
2018-08-19T01:49:17.213Z,33.57
2018-08-19T01:51:45.964Z,32.77
2018-08-19T01:54:19.757Z,31.57
2018-08-19T01:56:52.484Z,30.90
2018-08-19T01:59:21.204Z,32.17
2018-08-19T02:01:53.581Z,35.27
2018-08-19T02:04:22.400Z,36.57
2018-08-19T02:06:50.919Z,34.73
2018-08-19T02:09:20.113Z,36.10
2018-08-19T02:11:52.425Z,37.33
2018-08-19T02:14:21.902Z,39.53
2018-08-19T02:16:51.253Z,40.13
2018-08-19T02:19:19.807Z,36.97
2018-08-19T02:21:49.193Z,41.73
2018-08-19T02:24:18.227Z,36.63
2018-08-19T02:26:46.841Z,37.07
2018-08-19T02:29:33.180Z,36.60
2018-08-19T02:32:06.020Z,32.63
2018-08-19T02:34:36.632Z,45.43
2018-08-19T02:37:10.673Z,34.30
2018-08-19T02:39:42.020Z,37.27
2018-08-19T02:42:30.410Z,38.80
2018-08-19T02:45:04.518Z,37.10
2018-08-19T02:47:33.750Z,41.27
2018-08-19T02:50:02.571Z,37.53
2018-08-19T02:52:34.410Z,36.50
2018-08-19T02:55:04.653Z,40.43
2018-08-19T02:57:33.988Z,37.40
2018-08-19T03:00:03.424Z,40.33
2018-08-19T03:02:37.419Z,39.13
2018-08-19T03:05:10.465Z,39.73
2018-08-19T03:07:39.122Z,35.57
2018-08-19T03:10:16.901Z,45.13
2018-08-19T03:12:45.883Z,39.90
2018-08-19T03:15:16.086Z,39.40
2018-08-19T03:17:47.491Z,36.37
2018-08-19T03:20:15.966Z,39.40
2018-08-19T03:22:44.540Z,38.17
2018-08-19T03:25:13.301Z,40.37
2018-08-19T03:27:41.808Z,38.47
2018-08-19T03:30:11.794Z,46.63
2018-08-19T03:32:48.545Z,42.20
2018-08-19T03:35:18.288Z,47.40
2018-08-19T03:37:46.986Z,38.63
2018-08-19T03:40:15.649Z,42.47
2018-08-19T03:42:44.146Z,38.30
2018-08-19T03:45:20.670Z,39.53
2018-08-19T03:47:50.359Z,36.80
2018-08-19T03:50:22.893Z,41.77
2018-08-19T03:52:52.145Z,41.67
2018-08-19T03:55:25.856Z,42.10
2018-08-19T03:57:57.896Z,37.63
2018-08-19T04:00:27.247Z,43.70
2018-08-19T04:02:55.819Z,38.77
2018-08-19T04:05:41.544Z,38.10
2018-08-19T04:08:11.336Z,37.47
2018-08-19T04:10:41.286Z,40.43
2018-08-19T04:13:25.007Z,37.20
2018-08-19T04:15:54.886Z,42.73
2018-08-19T04:18:27.547Z,41.83
2018-08-19T04:20:58.115Z,36.10
2018-08-19T04:23:27.040Z,39.83
2018-08-19T04:25:56.010Z,42.40
2018-08-19T04:28:25.090Z,37.20
2018-08-19T04:30:55.435Z,41.77
2018-08-19T04:33:29.317Z,36.13
2018-08-19T04:35:57.841Z,37.60
2018-08-19T04:38:27.833Z,37.60
2018-08-19T04:40:56.617Z,39.33
2018-08-19T04:43:26.987Z,38.30
2018-08-19T04:45:55.616Z,37.83
2018-08-19T04:48:25.030Z,39.20
2018-08-19T04:50:54.837Z,39.87
2018-08-19T04:53:23.488Z,37.97
2018-08-19T04:55:52.540Z,37.40
2018-08-19T04:58:21.054Z,41.57
2018-08-19T05:00:50.548Z,35.37
2018-08-19T05:03:19.175Z,36.43
2018-08-19T05:05:47.661Z,35.73
2018-08-19T05:08:16.308Z,37.00
2018-08-19T05:10:44.737Z,35.80
2018-08-19T05:13:13.822Z,37.93
2018-08-19T05:15:42.823Z,36.27
2018-08-19T05:18:11.368Z,35.10
2018-08-19T05:20:39.906Z,44.40
2018-08-19T05:23:08.873Z,39.27
2018-08-19T05:26:12.177Z,37.03
2018-08-19T05:28:40.983Z,37.27
2018-08-19T05:31:09.563Z,37.57
2018-08-19T05:33:38.082Z,34.53
2018-08-19T05:36:06.596Z,35.00
2018-08-19T05:38:35.153Z,35.70
2018-08-19T05:41:03.674Z,33.57
2018-08-19T05:43:32.895Z,37.50
2018-08-19T05:46:01.865Z,33.40
2018-08-19T05:48:30.733Z,34.93
2018-08-19T05:50:59.464Z,32.37
2018-08-19T05:53:28.001Z,31.77
2018-08-19T05:55:56.538Z,32.87
2018-08-19T05:58:25.066Z,36.97
2018-08-19T06:01:00.993Z,30.57
2018-08-19T06:03:30.226Z,37.57
2018-08-19T06:05:59.265Z,32.60
2018-08-19T06:08:27.829Z,33.93
2018-08-19T06:10:56.310Z,30.73
2018-08-19T06:13:25.690Z,32.10
2018-08-19T06:15:54.181Z,30.70
2018-08-19T06:18:22.708Z,32.67
2018-08-19T06:20:51.369Z,33.43
2018-08-19T06:23:21.577Z,32.57
2018-08-19T06:25:50.207Z,27.13
2018-08-19T06:28:18.804Z,29.40
2018-08-19T06:30:47.312Z,26.10
2018-08-19T06:33:16.056Z,26.93
2018-08-19T06:35:44.595Z,27.70
2018-08-19T06:38:13.210Z,26.03
2018-08-19T06:40:41.796Z,25.50
2018-08-19T06:43:11.025Z,27.60
2018-08-19T06:45:39.587Z,26.00
2018-08-19T06:48:08.563Z,25.47
2018-08-19T06:50:37.303Z,25.20
2018-08-19T06:53:05.975Z,24.33
2018-08-19T06:55:34.516Z,25.87
2018-08-19T06:58:03.041Z,25.97
2018-08-19T07:00:32.536Z,25.30
2018-08-19T07:03:02.571Z,22.30
2018-08-19T07:05:31.682Z,22.90
2018-08-19T07:08:00.324Z,22.83
2018-08-19T07:10:34.301Z,27.90
2018-08-19T07:13:07.177Z,20.70
2018-08-19T07:15:36.953Z,23.23
2018-08-19T07:18:06.528Z,22.27
2018-08-19T07:20:35.687Z,22.50
2018-08-19T07:23:04.250Z,18.17
2018-08-19T07:25:32.785Z,19.93
2018-08-19T07:28:01.326Z,15.70
2018-08-19T07:30:29.918Z,14.97
2018-08-19T07:32:58.457Z,15.27
2018-08-19T07:35:27.041Z,16.27
2018-08-19T07:37:55.567Z,15.53
2018-08-19T07:40:24.100Z,12.13
2018-08-19T07:42:53.525Z,12.77
2018-08-19T07:45:22.283Z,13.57
2018-08-19T07:47:51.043Z,12.33
2018-08-19T07:50:19.606Z,13.20
2018-08-19T07:52:48.211Z,13.53
2018-08-19T07:55:16.882Z,11.23
2018-08-19T07:57:45.434Z,12.60
2018-08-19T08:00:14.029Z,12.47
2018-08-19T08:02:42.600Z,11.67
2018-08-19T08:05:11.730Z,11.00
2018-08-19T08:07:48.032Z,15.00
2018-08-19T08:10:20.823Z,11.43
2018-08-19T08:12:54.506Z,12.57
2018-08-19T08:15:23.471Z,13.83
2018-08-19T08:17:52.086Z,13.03
2018-08-19T08:20:20.621Z,10.70
2018-08-19T08:22:49.273Z,13.03
2018-08-19T08:25:17.801Z,11.87
2018-08-19T08:27:46.301Z,12.17
2018-08-19T08:30:14.808Z,12.50
2018-08-19T08:32:45.785Z,11.47
2018-08-19T08:35:14.332Z,10.93
2018-08-19T08:37:43.320Z,9.60
2018-08-19T08:40:12.284Z,11.03
2018-08-19T08:42:42.120Z,10.17
2018-08-19T08:45:12.115Z,11.77
2018-08-19T08:47:40.879Z,10.17
2018-08-19T08:50:10.735Z,10.97
2018-08-19T08:52:39.416Z,9.63
2018-08-19T08:55:10.433Z,12.07
2018-08-19T08:57:39.056Z,10.77
2018-08-19T09:00:09.016Z,11.03
2018-08-19T09:02:37.568Z,10.50
2018-08-19T09:05:08.350Z,9.20
2018-08-19T09:07:36.851Z,11.57
2018-08-19T09:10:05.829Z,13.77
2018-08-19T09:12:42.964Z,11.60
2018-08-19T09:15:11.552Z,12.57
2018-08-19T09:17:40.133Z,9.40
2018-08-19T09:20:09.656Z,10.00
2018-08-19T09:22:38.213Z,11.70
2018-08-19T09:25:07.736Z,11.13
2018-08-19T09:27:37.106Z,11.10
2018-08-19T09:30:05.659Z,15.67
2018-08-19T09:32:35.262Z,9.83
2018-08-19T09:35:03.948Z,11.23
2018-08-19T09:37:32.565Z,15.50
2018-08-19T09:40:01.114Z,9.27
2018-08-19T09:42:29.801Z,10.90
2018-08-19T09:44:58.375Z,10.83
2018-08-19T09:47:26.902Z,10.40
2018-08-19T09:49:55.524Z,12.27
2018-08-19T09:52:24.117Z,10.77
2018-08-19T09:54:52.825Z,12.03
2018-08-19T09:57:21.389Z,11.40
2018-08-19T09:59:50.026Z,11.50
2018-08-19T10:02:18.558Z,11.67
2018-08-19T10:04:47.085Z,11.67
2018-08-19T10:07:15.593Z,8.50
2018-08-19T10:09:44.253Z,8.50
2018-08-19T10:12:14.600Z,10.63
2018-08-19T10:14:43.113Z,14.90
2018-08-19T10:17:11.686Z,10.10
2018-08-19T10:19:40.397Z,9.17
2018-08-19T10:22:08.936Z,11.33
2018-08-19T10:24:37.463Z,9.97
2018-08-19T10:27:08.571Z,10.87
2018-08-19T10:29:37.138Z,10.73
2018-08-19T10:32:06.098Z,9.97
2018-08-19T10:34:37.027Z,11.10
2018-08-19T10:37:06.338Z,10.93
2018-08-19T10:39:34.911Z,9.27
2018-08-19T10:42:17.026Z,8.10
2018-08-19T10:44:46.989Z,8.33
2018-08-19T10:47:15.588Z,10.57
2018-08-19T10:49:48.452Z,7.77
2018-08-19T10:52:23.426Z,8.90
2018-08-19T10:54:51.945Z,11.13
2018-08-19T10:57:21.406Z,8.97
2018-08-19T10:59:54.667Z,8.50
2018-08-19T11:02:23.558Z,10.27
2018-08-19T11:04:54.486Z,9.63
2018-08-19T11:07:23.155Z,9.57
2018-08-19T11:10:22.176Z,8.87
2018-08-19T11:12:53.361Z,9.50
2018-08-19T11:15:40.152Z,9.97
2018-08-19T11:19:12.323Z,11.80
2018-08-19T11:21:40.832Z,12.37
2018-08-19T11:24:15.757Z,9.50
2018-08-19T11:26:46.897Z,10.20
2018-08-19T11:29:15.430Z,9.13
2018-08-19T11:31:44.590Z,8.73
2018-08-19T11:34:13.233Z,9.83
2018-08-19T11:36:44.287Z,8.93
2018-08-19T11:39:14.484Z,9.70
2018-08-19T11:41:43.056Z,7.97
2018-08-19T11:44:14.812Z,8.80
2018-08-19T11:46:43.346Z,9.07
2018-08-19T11:49:19.048Z,9.67
2018-08-19T11:51:54.076Z,8.33
2018-08-19T11:54:23.615Z,10.47
2018-08-19T11:56:59.829Z,7.37
2018-08-19T11:59:36.709Z,8.93
2018-08-19T12:02:08.257Z,9.73
2018-08-19T12:04:36.909Z,12.43
2018-08-19T12:07:05.603Z,11.33
2018-08-19T12:09:34.189Z,9.20
2018-08-19T12:12:02.855Z,7.43
2018-08-19T12:14:36.418Z,9.57
2018-08-19T12:17:11.870Z,11.77
2018-08-19T12:19:42.921Z,8.07
2018-08-19T12:22:12.028Z,10.70
2018-08-19T12:24:42.452Z,8.90
2018-08-19T12:27:12.488Z,9.50
2018-08-19T12:29:41.978Z,8.97
2018-08-19T12:32:15.737Z,11.20
2018-08-19T12:34:49.353Z,11.63
2018-08-19T12:37:19.069Z,10.17
2018-08-19T12:39:47.841Z,8.47
2018-08-19T12:42:16.405Z,9.50
2018-08-19T12:44:48.139Z,9.50
2018-08-19T12:47:22.529Z,9.70
2018-08-19T12:49:52.652Z,11.90
2018-08-19T12:52:23.205Z,7.13
2018-08-19T12:54:56.984Z,7.93
2018-08-19T12:57:25.892Z,9.67
2018-08-19T13:00:02.027Z,9.03
2018-08-19T13:02:31.812Z,9.27
2018-08-19T13:05:00.308Z,8.40
2018-08-19T13:07:28.783Z,11.20
2018-08-19T13:09:57.458Z,9.17
2018-08-19T13:12:25.973Z,11.93
2018-08-19T13:14:54.494Z,8.87
2018-08-19T13:17:23.033Z,8.93
2018-08-19T13:19:56.805Z,9.83
2018-08-19T13:22:25.539Z,10.30
2018-08-19T13:24:54.671Z,11.93
2018-08-19T13:27:23.257Z,10.30
2018-08-19T13:29:51.805Z,7.93
2018-08-19T13:32:20.329Z,8.93
2018-08-19T13:34:49.074Z,8.57
2018-08-19T13:37:17.629Z,8.90
2018-08-19T13:39:46.377Z,9.03
2018-08-19T13:42:15.003Z,8.70
2018-08-19T13:44:43.534Z,7.17
2018-08-19T13:47:12.171Z,9.93
2018-08-19T13:49:40.993Z,9.03
2018-08-19T13:52:09.632Z,9.50
2018-08-19T13:54:51.275Z,8.30
2018-08-19T13:57:19.886Z,8.73
2018-08-19T13:59:48.454Z,10.27
2018-08-19T14:02:17.210Z,8.50
2018-08-19T14:04:45.710Z,8.77
2018-08-19T14:07:14.366Z,7.97
2018-08-19T14:09:42.881Z,7.17
2018-08-19T14:12:11.427Z,11.70
2018-08-19T14:14:40.013Z,9.53
2018-08-19T14:17:08.468Z,8.60
2018-08-19T14:19:36.967Z,8.30
2018-08-19T14:22:05.501Z,7.50
2018-08-19T14:24:34.017Z,7.17
2018-08-19T14:27:02.533Z,9.23
2018-08-19T14:29:31.060Z,7.70
2018-08-19T14:31:59.623Z,8.00
2018-08-19T14:34:28.129Z,10.23
2018-08-19T14:36:56.985Z,10.53
2018-08-19T14:39:25.547Z,10.60
2018-08-19T14:41:54.123Z,9.00
2018-08-19T14:44:22.609Z,7.33
2018-08-19T14:46:52.799Z,7.97
2018-08-19T14:49:21.619Z,9.93
2018-08-19T14:52:01.698Z,8.90
2018-08-19T14:54:30.226Z,9.37
2018-08-19T14:56:58.790Z,9.67
2018-08-19T14:59:27.313Z,7.40
2018-08-19T15:01:55.933Z,10.43
2018-08-19T15:04:24.511Z,9.03
2018-08-19T15:06:53.113Z,10.77
2018-08-19T15:09:28.308Z,8.37
2018-08-19T15:12:05.246Z,8.77
2018-08-19T15:14:34.266Z,11.23
2018-08-19T15:17:02.767Z,10.03
2018-08-19T15:19:31.321Z,8.27
2018-08-19T15:21:59.833Z,7.13
2018-08-19T15:24:28.338Z,6.60
2018-08-19T15:26:56.878Z,9.23
2018-08-19T15:29:29.616Z,8.40
2018-08-19T15:31:59.379Z,10.33
2018-08-19T15:34:28.370Z,8.37
2018-08-19T15:36:56.970Z,9.67
2018-08-19T15:39:29.191Z,8.13
2018-08-19T15:41:58.000Z,8.87
2018-08-19T15:44:26.495Z,8.17
2018-08-19T15:46:55.067Z,7.03
2018-08-19T15:49:24.401Z,8.03
2018-08-19T15:51:53.198Z,8.27
2018-08-19T15:54:21.783Z,7.67
2018-08-19T15:56:50.378Z,7.27
2018-08-19T15:59:18.989Z,8.97
2018-08-19T16:01:47.605Z,7.97
2018-08-19T16:04:20.872Z,7.50
2018-08-19T16:06:51.074Z,7.07
2018-08-19T16:09:24.091Z,10.97
2018-08-19T16:11:53.065Z,8.37
2018-08-19T16:14:25.447Z,6.33
2018-08-19T16:16:54.603Z,8.10
2018-08-19T16:19:23.333Z,10.17
2018-08-19T16:21:53.204Z,10.80
2018-08-19T16:24:21.807Z,9.40
2018-08-19T16:26:50.320Z,7.43
2018-08-19T16:29:18.866Z,7.70
2018-08-19T16:31:47.756Z,8.17
2018-08-19T16:34:16.350Z,8.40
2018-08-19T16:36:44.924Z,11.53
2018-08-19T16:39:15.127Z,6.53
2018-08-19T16:41:43.985Z,9.37
2018-08-19T16:44:12.538Z,9.67
2018-08-19T16:46:41.445Z,7.23
2018-08-19T16:49:10.105Z,6.97
2018-08-19T16:51:38.637Z,10.90
2018-08-19T16:54:07.708Z,8.83
2018-08-19T16:56:36.189Z,8.97
2018-08-19T16:59:04.902Z,10.37
2018-08-19T17:01:33.409Z,9.53
2018-08-19T17:04:01.954Z,9.67
2018-08-19T17:06:30.517Z,9.37
2018-08-19T17:08:59.055Z,9.67
2018-08-19T17:11:27.703Z,8.03
2018-08-19T17:13:56.605Z,10.67
2018-08-19T17:16:26.978Z,9.77
2018-08-19T17:18:55.491Z,9.27
2018-08-19T17:21:24.053Z,11.87
2018-08-19T17:23:52.907Z,14.03
2018-08-19T17:26:23.599Z,10.93
2018-08-19T17:28:52.336Z,9.00
2018-08-19T17:31:21.134Z,11.80
2018-08-19T17:33:49.753Z,9.13
2018-08-19T17:36:39.734Z,12.97
2018-08-19T17:39:12.889Z,9.83
2018-08-19T17:41:41.443Z,10.07
2018-08-19T17:44:10.018Z,11.57
2018-08-19T17:46:38.608Z,10.43
2018-08-19T17:49:12.692Z,8.33
2018-08-19T17:51:41.240Z,15.77
2018-08-19T17:54:40.213Z,10.13
2018-08-19T17:57:08.785Z,11.10
2018-08-19T17:59:37.360Z,9.30
2018-08-19T18:02:05.896Z,11.30
2018-08-19T18:04:39.472Z,10.00
2018-08-19T18:07:11.008Z,9.97
2018-08-19T18:09:43.098Z,11.83
2018-08-19T18:12:11.647Z,10.00
2018-08-19T18:14:40.193Z,8.30
2018-08-19T18:17:08.731Z,13.30
2018-08-19T18:19:37.267Z,11.73
2018-08-19T18:22:05.894Z,10.03
2018-08-19T18:24:34.398Z,10.60
2018-08-19T18:27:02.961Z,12.03
2018-08-19T18:29:39.882Z,12.17
2018-08-19T18:32:08.531Z,11.10
2018-08-19T18:34:39.267Z,10.67
2018-08-19T18:37:08.296Z,11.00
2018-08-19T18:39:37.141Z,10.00
2018-08-19T18:42:06.016Z,9.97
2018-08-19T18:44:34.567Z,9.03
2018-08-19T18:47:03.568Z,10.63
2018-08-19T18:49:32.233Z,9.17
2018-08-19T18:52:06.013Z,10.33
2018-08-19T18:54:34.643Z,10.33
2018-08-19T18:57:06.134Z,9.87
2018-08-19T18:59:35.033Z,11.40
2018-08-19T19:02:04.542Z,11.87
2018-08-19T19:04:33.135Z,9.63
2018-08-19T19:07:01.673Z,9.63
2018-08-19T19:09:36.178Z,10.70
2018-08-19T19:12:05.115Z,12.00
2018-08-19T19:14:34.574Z,9.13
2018-08-19T19:17:03.151Z,11.07
2018-08-19T19:19:35.920Z,10.40
2018-08-19T19:22:04.604Z,13.63
2018-08-19T19:24:38.751Z,11.43
2018-08-19T19:27:08.078Z,11.33
2018-08-19T19:29:36.708Z,11.07
2018-08-19T19:32:16.135Z,13.83
2018-08-19T19:34:44.732Z,12.60
2018-08-19T19:37:13.373Z,9.57
2018-08-19T19:39:41.978Z,9.40
2018-08-19T19:42:11.526Z,10.93
2018-08-19T19:44:40.225Z,10.73
2018-08-19T19:47:09.834Z,10.27
2018-08-19T19:49:44.044Z,12.20
2018-08-19T19:52:12.725Z,10.47
2018-08-19T19:54:41.304Z,17.90
2018-08-19T19:57:09.847Z,12.60
2018-08-19T19:59:38.362Z,10.30
2018-08-19T20:02:07.079Z,10.97
2018-08-19T20:04:35.972Z,11.27
2018-08-19T20:07:04.593Z,13.23
2018-08-19T20:09:35.840Z,11.37
2018-08-19T20:12:04.560Z,11.53
2018-08-19T20:14:37.474Z,11.47
2018-08-19T20:17:05.981Z,12.03
2018-08-19T20:19:34.465Z,9.73
2018-08-19T20:22:03.243Z,13.57
2018-08-19T20:24:31.791Z,14.17
2018-08-19T20:27:00.283Z,11.37
2018-08-19T20:29:28.831Z,11.87
2018-08-19T20:31:57.310Z,13.00
2018-08-19T20:34:25.856Z,11.17
2018-08-19T20:36:54.374Z,11.17
2018-08-19T20:39:22.884Z,12.30
2018-08-19T20:41:51.409Z,13.67
2018-08-19T20:44:20.005Z,11.57
2018-08-19T20:46:52.843Z,12.77
2018-08-19T20:49:21.394Z,10.97
2018-08-19T20:51:53.161Z,11.43
2018-08-19T20:54:21.890Z,13.20
2018-08-19T20:56:53.277Z,14.83
2018-08-19T20:59:37.100Z,15.57
2018-08-19T21:02:07.148Z,17.10
2018-08-19T21:04:39.670Z,16.07
2018-08-19T21:07:08.315Z,19.63
2018-08-19T21:09:36.960Z,16.30
2018-08-19T21:12:09.000Z,15.33
2018-08-19T21:14:37.775Z,19.90
2018-08-19T21:17:06.826Z,19.57
2018-08-19T21:19:37.129Z,20.03
2018-08-19T21:22:05.816Z,19.60
2018-08-19T21:24:34.729Z,20.57
2018-08-19T21:27:04.099Z,21.90
2018-08-19T21:29:33.022Z,20.77
2018-08-19T21:32:01.607Z,24.30
2018-08-19T21:34:30.502Z,26.90
2018-08-19T21:37:02.141Z,31.20
2018-08-19T21:39:30.693Z,28.07
2018-08-19T21:42:02.293Z,25.47
2018-08-19T21:44:30.986Z,24.33
2018-08-19T21:46:59.548Z,22.27
2018-08-19T21:49:28.030Z,22.57
2018-08-19T21:51:56.614Z,23.40
2018-08-19T21:54:25.144Z,20.77
2018-08-19T21:56:53.649Z,24.87
2018-08-19T21:59:23.811Z,23.37
2018-08-19T22:01:57.744Z,26.13
2018-08-19T22:04:26.436Z,22.30
2018-08-19T22:06:54.933Z,23.47
2018-08-19T22:09:34.142Z,27.27
2018-08-19T22:12:03.076Z,24.63
2018-08-19T22:14:32.310Z,23.40
2018-08-19T22:17:06.293Z,22.50
2018-08-19T22:19:34.789Z,21.37
2018-08-19T22:22:03.710Z,21.23
2018-08-19T22:24:32.352Z,20.37
2018-08-19T22:27:09.120Z,18.43
2018-08-19T22:29:37.661Z,18.63
2018-08-19T22:32:06.492Z,18.90
2018-08-19T22:34:35.004Z,18.20
2018-08-19T22:37:03.926Z,16.47
2018-08-19T22:39:32.460Z,20.97
2018-08-19T22:42:00.956Z,18.33
2018-08-19T22:44:29.465Z,16.83
2018-08-19T22:46:57.996Z,16.10
2018-08-19T22:49:27.960Z,15.33
2018-08-19T22:52:09.508Z,14.07
2018-08-19T22:54:38.744Z,16.67
2018-08-19T22:57:07.316Z,15.10
2018-08-19T22:59:35.816Z,17.33
2018-08-19T23:02:08.280Z,17.30
2018-08-19T23:04:40.409Z,16.80
2018-08-19T23:07:08.979Z,15.80
2018-08-19T23:09:37.475Z,17.83
2018-08-19T23:12:06.096Z,15.90
2018-08-19T23:14:46.001Z,17.43
2018-08-19T23:17:14.690Z,17.63
2018-08-19T23:19:43.219Z,19.17
2018-08-19T23:22:11.774Z,15.63
2018-08-19T23:24:40.277Z,17.73
2018-08-19T23:27:08.865Z,16.53
2018-08-19T23:29:37.731Z,17.87
2018-08-19T23:32:06.437Z,16.17
2018-08-19T23:34:34.967Z,16.90
2018-08-19T23:37:03.996Z,16.97
2018-08-19T23:39:32.681Z,14.30
2018-08-19T23:42:01.226Z,12.70
2018-08-19T23:44:29.762Z,13.50
2018-08-19T23:46:58.324Z,14.60
2018-08-19T23:49:26.789Z,15.20
2018-08-19T23:51:55.355Z,17.30
2018-08-19T23:54:23.845Z,18.20
2018-08-19T23:56:52.378Z,17.03
2018-08-19T23:59:26.828Z,15.27
